sensor_id;sensor_type;location;lat;lon;timestamp;P1;durP1;ratioP1;P2;durP2;ratioP2
24389;SDS011;12510;56.468;-3.004;2023-06-14T00:02:17;8.98;;;5.63;;
24389;SDS011;12510;56.468;-3.004;2023-06-14T00:04:44;10.30;;;5.50;;
24389;SDS011;12510;56.468;-3.004;2023-06-14T00:07:11;6.00;;;3.85;;
24389;SDS011;12510;56.468;-3.004;2023-06-14T00:09:39;5.28;;;4.68;;
24389;SDS011;12510;56.468;-3.004;2023-06-14T00:12:06;6.93;;;4.72;;
24389;SDS011;12510;56.468;-3.004;2023-06-14T00:14:32;6.55;;;5.72;;
24389;SDS011;12510;56.468;-3.004;2023-06-14T00:16:59;8.93;;;5.47;;
24389;SDS011;12510;56.468;-3.004;2023-06-14T00:19:26;6.72;;;5.28;;
24389;SDS011;12510;56.468;-3.004;2023-06-14T00:21:52;9.85;;;6.40;;
24389;SDS011;12510;56.468;-3.004;2023-06-14T00:24:19;4.25;;;3.88;;
24389;SDS011;12510;56.468;-3.004;2023-06-14T00:26:46;8.30;;;5.45;;
24389;SDS011;12510;56.468;-3.004;2023-06-14T00:29:13;5.10;;;4.60;;
24389;SDS011;12510;56.468;-3.004;2023-06-14T00:31:40;8.55;;;5.65;;
24389;SDS011;12510;56.468;-3.004;2023-06-14T00:34:06;6.57;;;5.35;;
24389;SDS011;12510;56.468;-3.004;2023-06-14T00:36:33;8.90;;;6.00;;
24389;SDS011;12510;56.468;-3.004;2023-06-14T00:38:59;7.20;;;5.60;;
24389;SDS011;12510;56.468;-3.004;2023-06-14T00:41:26;5.38;;;4.88;;
24389;SDS011;12510;56.468;-3.004;2023-06-14T00:43:53;7.72;;;6.60;;
24389;SDS011;12510;56.468;-3.004;2023-06-14T00:46:22;12.50;;;5.22;;
24389;SDS011;12510;56.468;-3.004;2023-06-14T00:48:49;6.97;;;5.45;;
24389;SDS011;12510;56.468;-3.004;2023-06-14T00:51:16;6.05;;;5.43;;
24389;SDS011;12510;56.468;-3.004;2023-06-14T00:53:42;5.88;;;5.10;;
24389;SDS011;12510;56.468;-3.004;2023-06-14T00:58:41;6.53;;;4.38;;
24389;SDS011;12510;56.468;-3.004;2023-06-14T01:01:09;6.53;;;4.72;;
24389;SDS011;12510;56.468;-3.004;2023-06-14T01:03:36;6.93;;;4.72;;
24389;SDS011;12510;56.468;-3.004;2023-06-14T01:06:21;6.00;;;4.68;;
24389;SDS011;12510;56.468;-3.004;2023-06-14T01:09:24;4.03;;;3.50;;
24389;SDS011;12510;56.468;-3.004;2023-06-14T01:12:16;6.03;;;5.00;;
24389;SDS011;12510;56.468;-3.004;2023-06-14T01:14:50;6.28;;;4.88;;
24389;SDS011;12510;56.468;-3.004;2023-06-14T01:17:19;6.60;;;4.90;;
24389;SDS011;12510;56.468;-3.004;2023-06-14T01:19:48;7.93;;;5.32;;
24389;SDS011;12510;56.468;-3.004;2023-06-14T01:22:14;7.72;;;5.28;;
24389;SDS011;12510;56.468;-3.004;2023-06-14T01:24:41;5.90;;;4.70;;
24389;SDS011;12510;56.468;-3.004;2023-06-14T01:27:11;5.18;;;4.50;;
24389;SDS011;12510;56.468;-3.004;2023-06-14T01:29:39;9.18;;;4.75;;
24389;SDS011;12510;56.468;-3.004;2023-06-14T01:32:14;6.13;;;5.18;;
24389;SDS011;12510;56.468;-3.004;2023-06-14T01:34:42;9.10;;;4.80;;
24389;SDS011;12510;56.468;-3.004;2023-06-14T01:37:08;6.45;;;4.72;;
24389;SDS011;12510;56.468;-3.004;2023-06-14T01:39:36;5.10;;;4.30;;
24389;SDS011;12510;56.468;-3.004;2023-06-14T01:42:03;6.85;;;3.63;;
24389;SDS011;12510;56.468;-3.004;2023-06-14T01:44:32;5.43;;;4.22;;
24389;SDS011;12510;56.468;-3.004;2023-06-14T01:47:01;4.97;;;4.35;;
24389;SDS011;12510;56.468;-3.004;2023-06-14T01:49:27;5.88;;;4.60;;
24389;SDS011;12510;56.468;-3.004;2023-06-14T01:51:54;6.15;;;5.03;;
24389;SDS011;12510;56.468;-3.004;2023-06-14T01:54:20;4.60;;;4.10;;
24389;SDS011;12510;56.468;-3.004;2023-06-14T01:56:47;6.53;;;4.15;;
24389;SDS011;12510;56.468;-3.004;2023-06-14T01:59:14;6.90;;;5.07;;
24389;SDS011;12510;56.468;-3.004;2023-06-14T02:01:42;4.45;;;3.90;;
24389;SDS011;12510;56.468;-3.004;2023-06-14T02:04:09;6.60;;;4.80;;
24389;SDS011;12510;56.468;-3.004;2023-06-14T02:06:37;7.82;;;4.10;;
24389;SDS011;12510;56.468;-3.004;2023-06-14T02:09:04;5.43;;;3.67;;
24389;SDS011;12510;56.468;-3.004;2023-06-14T02:11:30;5.30;;;3.80;;
24389;SDS011;12510;56.468;-3.004;2023-06-14T02:13:56;5.38;;;3.95;;
24389;SDS011;12510;56.468;-3.004;2023-06-14T02:16:25;4.38;;;3.35;;
24389;SDS011;12510;56.468;-3.004;2023-06-14T02:18:54;6.78;;;4.03;;
24389;SDS011;12510;56.468;-3.004;2023-06-14T02:21:23;2.73;;;2.53;;
24389;SDS011;12510;56.468;-3.004;2023-06-14T02:23:49;4.07;;;2.83;;
24389;SDS011;12510;56.468;-3.004;2023-06-14T02:26:16;3.90;;;3.40;;
24389;SDS011;12510;56.468;-3.004;2023-06-14T02:28:42;7.22;;;4.78;;
24389;SDS011;12510;56.468;-3.004;2023-06-14T02:31:09;3.33;;;3.03;;
24389;SDS011;12510;56.468;-3.004;2023-06-14T02:33:35;3.53;;;3.20;;
24389;SDS011;12510;56.468;-3.004;2023-06-14T02:36:02;5.90;;;3.80;;
24389;SDS011;12510;56.468;-3.004;2023-06-14T02:38:29;6.72;;;3.60;;
24389;SDS011;12510;56.468;-3.004;2023-06-14T02:40:55;4.63;;;3.55;;
24389;SDS011;12510;56.468;-3.004;2023-06-14T02:43:22;7.20;;;3.80;;
24389;SDS011;12510;56.468;-3.004;2023-06-14T02:45:48;4.05;;;3.65;;
24389;SDS011;12510;56.468;-3.004;2023-06-14T02:48:14;4.97;;;3.67;;
24389;SDS011;12510;56.468;-3.004;2023-06-14T02:50:41;3.53;;;3.22;;
24389;SDS011;12510;56.468;-3.004;2023-06-14T02:53:10;4.80;;;3.50;;
24389;SDS011;12510;56.468;-3.004;2023-06-14T02:55:38;5.28;;;3.78;;
24389;SDS011;12510;56.468;-3.004;2023-06-14T02:58:06;4.22;;;3.60;;
24389;SDS011;12510;56.468;-3.004;2023-06-14T03:00:33;3.47;;;3.15;;
24389;SDS011;12510;56.468;-3.004;2023-06-14T03:03:02;4.15;;;3.78;;
24389;SDS011;12510;56.468;-3.004;2023-06-14T03:05:30;7.63;;;4.38;;
24389;SDS011;12510;56.468;-3.004;2023-06-14T03:07:57;4.10;;;3.65;;
24389;SDS011;12510;56.468;-3.004;2023-06-14T03:10:23;5.63;;;3.50;;
24389;SDS011;12510;56.468;-3.004;2023-06-14T03:12:51;3.78;;;3.15;;
24389;SDS011;12510;56.468;-3.004;2023-06-14T03:15:21;5.57;;;3.97;;
24389;SDS011;12510;56.468;-3.004;2023-06-14T03:17:49;5.55;;;4.30;;
24389;SDS011;12510;56.468;-3.004;2023-06-14T03:20:17;5.50;;;5.00;;
24389;SDS011;12510;56.468;-3.004;2023-06-14T03:22:46;7.80;;;6.47;;
24389;SDS011;12510;56.468;-3.004;2023-06-14T03:25:14;7.13;;;6.43;;
24389;SDS011;12510;56.468;-3.004;2023-06-14T03:27:43;7.67;;;6.13;;
24389;SDS011;12510;56.468;-3.004;2023-06-14T03:30:10;8.27;;;6.65;;
24389;SDS011;12510;56.468;-3.004;2023-06-14T03:32:37;5.00;;;4.13;;
24389;SDS011;12510;56.468;-3.004;2023-06-14T03:35:04;9.20;;;4.68;;
24389;SDS011;12510;56.468;-3.004;2023-06-14T03:37:31;5.00;;;4.18;;
24389;SDS011;12510;56.468;-3.004;2023-06-14T03:39:58;6.50;;;3.95;;
24389;SDS011;12510;56.468;-3.004;2023-06-14T03:42:25;6.00;;;4.60;;
24389;SDS011;12510;56.468;-3.004;2023-06-14T03:44:53;5.63;;;4.40;;
24389;SDS011;12510;56.468;-3.004;2023-06-14T03:47:21;4.25;;;3.58;;
24389;SDS011;12510;56.468;-3.004;2023-06-14T03:49:47;4.75;;;4.00;;
24389;SDS011;12510;56.468;-3.004;2023-06-14T03:52:14;5.85;;;3.90;;
24389;SDS011;12510;56.468;-3.004;2023-06-14T03:57:11;4.00;;;3.70;;
24389;SDS011;12510;56.468;-3.004;2023-06-14T03:59:37;7.13;;;5.63;;
24389;SDS011;12510;56.468;-3.004;2023-06-14T04:02:04;8.77;;;6.50;;
24389;SDS011;12510;56.468;-3.004;2023-06-14T04:04:33;6.88;;;6.18;;
24389;SDS011;12510;56.468;-3.004;2023-06-14T04:07:01;10.63;;;5.80;;
24389;SDS011;12510;56.468;-3.004;2023-06-14T04:09:30;10.57;;;7.20;;
24389;SDS011;12510;56.468;-3.004;2023-06-14T04:11:57;8.52;;;7.63;;
24389;SDS011;12510;56.468;-3.004;2023-06-14T04:14:24;12.48;;;7.60;;
24389;SDS011;12510;56.468;-3.004;2023-06-14T04:16:51;10.80;;;9.65;;
24389;SDS011;12510;56.468;-3.004;2023-06-14T04:19:19;11.07;;;8.35;;
24389;SDS011;12510;56.468;-3.004;2023-06-14T04:21:46;9.25;;;8.35;;
24389;SDS011;12510;56.468;-3.004;2023-06-14T04:24:14;11.48;;;8.27;;
24389;SDS011;12510;56.468;-3.004;2023-06-14T04:26:45;8.93;;;8.13;;
24389;SDS011;12510;56.468;-3.004;2023-06-14T04:29:15;11.85;;;9.32;;
24389;SDS011;12510;56.468;-3.004;2023-06-14T04:31:43;15.07;;;8.88;;
24389;SDS011;12510;56.468;-3.004;2023-06-14T04:34:11;14.05;;;9.18;;
24389;SDS011;12510;56.468;-3.004;2023-06-14T04:39:20;11.20;;;9.55;;
24389;SDS011;12510;56.468;-3.004;2023-06-14T04:41:48;10.65;;;9.15;;
24389;SDS011;12510;56.468;-3.004;2023-06-14T04:44:18;12.23;;;9.30;;
24389;SDS011;12510;56.468;-3.004;2023-06-14T04:46:50;11.20;;;9.30;;
24389;SDS011;12510;56.468;-3.004;2023-06-14T04:49:21;10.07;;;9.07;;
24389;SDS011;12510;56.468;-3.004;2023-06-14T04:51:49;11.70;;;9.60;;
24389;SDS011;12510;56.468;-3.004;2023-06-14T04:54:25;12.10;;;10.13;;
24389;SDS011;12510;56.468;-3.004;2023-06-14T04:56:52;11.80;;;10.32;;
24389;SDS011;12510;56.468;-3.004;2023-06-14T04:59:24;11.88;;;10.68;;
24389;SDS011;12510;56.468;-3.004;2023-06-14T05:01:51;11.20;;;10.13;;
24389;SDS011;12510;56.468;-3.004;2023-06-14T05:04:19;11.40;;;10.27;;
24389;SDS011;12510;56.468;-3.004;2023-06-14T05:06:47;11.48;;;10.27;;
24389;SDS011;12510;56.468;-3.004;2023-06-14T05:11:44;13.05;;;11.57;;
24389;SDS011;12510;56.468;-3.004;2023-06-14T05:14:11;12.23;;;10.48;;
24389;SDS011;12510;56.468;-3.004;2023-06-14T05:16:38;11.18;;;10.27;;
24389;SDS011;12510;56.468;-3.004;2023-06-14T05:19:05;12.98;;;11.52;;
24389;SDS011;12510;56.468;-3.004;2023-06-14T05:21:32;12.15;;;11.02;;
24389;SDS011;12510;56.468;-3.004;2023-06-14T05:24:00;11.45;;;10.50;;
24389;SDS011;12510;56.468;-3.004;2023-06-14T05:26:27;12.00;;;10.93;;
24389;SDS011;12510;56.468;-3.004;2023-06-14T05:28:56;12.85;;;11.65;;
24389;SDS011;12510;56.468;-3.004;2023-06-14T05:31:24;12.52;;;11.52;;
24389;SDS011;12510;56.468;-3.004;2023-06-14T05:33:52;12.55;;;11.35;;
24389;SDS011;12510;56.468;-3.004;2023-06-14T05:36:19;12.93;;;11.63;;
24389;SDS011;12510;56.468;-3.004;2023-06-14T05:38:47;12.57;;;10.80;;
24389;SDS011;12510;56.468;-3.004;2023-06-14T05:41:14;18.88;;;13.60;;
24389;SDS011;12510;56.468;-3.004;2023-06-14T05:43:40;13.30;;;11.90;;
24389;SDS011;12510;56.468;-3.004;2023-06-14T05:46:07;12.77;;;11.65;;
24389;SDS011;12510;56.468;-3.004;2023-06-14T05:48:33;12.40;;;11.20;;
24389;SDS011;12510;56.468;-3.004;2023-06-14T05:51:00;14.60;;;13.35;;
24389;SDS011;12510;56.468;-3.004;2023-06-14T05:53:26;13.80;;;12.32;;
24389;SDS011;12510;56.468;-3.004;2023-06-14T05:55:53;13.38;;;12.10;;
24389;SDS011;12510;56.468;-3.004;2023-06-14T05:58:21;13.70;;;12.50;;
24389;SDS011;12510;56.468;-3.004;2023-06-14T06:00:48;13.80;;;12.38;;
24389;SDS011;12510;56.468;-3.004;2023-06-14T06:03:14;13.70;;;12.40;;
24389;SDS011;12510;56.468;-3.004;2023-06-14T06:05:41;14.00;;;12.73;;
24389;SDS011;12510;56.468;-3.004;2023-06-14T06:08:07;16.35;;;13.05;;
24389;SDS011;12510;56.468;-3.004;2023-06-14T06:10:33;13.48;;;12.20;;
24389;SDS011;12510;56.468;-3.004;2023-06-14T06:13:00;13.65;;;12.32;;
24389;SDS011;12510;56.468;-3.004;2023-06-14T06:15:26;12.77;;;11.52;;
24389;SDS011;12510;56.468;-3.004;2023-06-14T06:17:53;12.60;;;11.25;;
24389;SDS011;12510;56.468;-3.004;2023-06-14T06:20:19;12.55;;;11.43;;
24389;SDS011;12510;56.468;-3.004;2023-06-14T06:22:47;11.82;;;10.73;;
24389;SDS011;12510;56.468;-3.004;2023-06-14T06:25:13;11.10;;;10.15;;
24389;SDS011;12510;56.468;-3.004;2023-06-14T06:27:40;11.18;;;10.27;;
24389;SDS011;12510;56.468;-3.004;2023-06-14T06:30:07;11.52;;;10.43;;
24389;SDS011;12510;56.468;-3.004;2023-06-14T06:32:34;10.73;;;9.75;;
24389;SDS011;12510;56.468;-3.004;2023-06-14T06:35:00;10.93;;;9.80;;
24389;SDS011;12510;56.468;-3.004;2023-06-14T06:37:27;12.30;;;9.70;;
24389;SDS011;12510;56.468;-3.004;2023-06-14T06:39:53;10.50;;;8.70;;
24389;SDS011;12510;56.468;-3.004;2023-06-14T06:42:20;8.27;;;7.53;;
24389;SDS011;12510;56.468;-3.004;2023-06-14T06:47:16;6.68;;;6.07;;
24389;SDS011;12510;56.468;-3.004;2023-06-14T06:49:42;8.70;;;6.32;;
24389;SDS011;12510;56.468;-3.004;2023-06-14T06:52:08;6.82;;;6.32;;
24389;SDS011;12510;56.468;-3.004;2023-06-14T06:54:35;8.85;;;7.75;;
24389;SDS011;12510;56.468;-3.004;2023-06-14T06:57:01;10.20;;;7.70;;
24389;SDS011;12510;56.468;-3.004;2023-06-14T06:59:28;9.65;;;7.07;;
24389;SDS011;12510;56.468;-3.004;2023-06-14T07:01:54;11.05;;;7.60;;
24389;SDS011;12510;56.468;-3.004;2023-06-14T07:04:21;10.30;;;7.75;;
24389;SDS011;12510;56.468;-3.004;2023-06-14T07:06:47;8.45;;;7.65;;
24389;SDS011;12510;56.468;-3.004;2023-06-14T07:09:14;14.30;;;8.75;;
24389;SDS011;12510;56.468;-3.004;2023-06-14T07:11:45;11.55;;;8.20;;
24389;SDS011;12510;56.468;-3.004;2023-06-14T07:14:13;8.88;;;7.97;;
24389;SDS011;12510;56.468;-3.004;2023-06-14T07:16:39;11.93;;;7.85;;
24389;SDS011;12510;56.468;-3.004;2023-06-14T07:19:07;10.52;;;8.43;;
24389;SDS011;12510;56.468;-3.004;2023-06-14T07:21:35;10.20;;;8.60;;
24389;SDS011;12510;56.468;-3.004;2023-06-14T07:24:05;8.93;;;8.03;;
24389;SDS011;12510;56.468;-3.004;2023-06-14T07:26:35;8.88;;;7.72;;
24389;SDS011;12510;56.468;-3.004;2023-06-14T07:29:01;9.60;;;8.60;;
24389;SDS011;12510;56.468;-3.004;2023-06-14T07:31:28;11.35;;;8.88;;
24389;SDS011;12510;56.468;-3.004;2023-06-14T07:33:55;8.65;;;7.70;;
24389;SDS011;12510;56.468;-3.004;2023-06-14T07:36:22;8.30;;;7.47;;
24389;SDS011;12510;56.468;-3.004;2023-06-14T07:38:48;10.23;;;7.88;;
24389;SDS011;12510;56.468;-3.004;2023-06-14T07:41:15;8.65;;;7.47;;
24389;SDS011;12510;56.468;-3.004;2023-06-14T07:43:42;8.05;;;7.28;;
24389;SDS011;12510;56.468;-3.004;2023-06-14T07:46:08;7.40;;;6.65;;
24389;SDS011;12510;56.468;-3.004;2023-06-14T07:48:35;7.68;;;6.88;;
24389;SDS011;12510;56.468;-3.004;2023-06-14T07:51:02;8.60;;;6.68;;
24389;SDS011;12510;56.468;-3.004;2023-06-14T07:53:28;7.82;;;5.95;;
24389;SDS011;12510;56.468;-3.004;2023-06-14T07:56:15;5.90;;;5.30;;
24389;SDS011;12510;56.468;-3.004;2023-06-14T07:58:41;5.90;;;5.32;;
24389;SDS011;12510;56.468;-3.004;2023-06-14T08:01:08;9.88;;;5.43;;
24389;SDS011;12510;56.468;-3.004;2023-06-14T08:03:35;6.07;;;4.90;;
24389;SDS011;12510;56.468;-3.004;2023-06-14T08:06:02;5.25;;;4.68;;
24389;SDS011;12510;56.468;-3.004;2023-06-14T08:08:28;8.25;;;5.65;;
24389;SDS011;12510;56.468;-3.004;2023-06-14T08:10:55;6.75;;;5.13;;
24389;SDS011;12510;56.468;-3.004;2023-06-14T08:13:21;7.18;;;5.35;;
24389;SDS011;12510;56.468;-3.004;2023-06-14T08:15:48;6.60;;;4.85;;
24389;SDS011;12510;56.468;-3.004;2023-06-14T08:18:14;4.97;;;4.55;;
24389;SDS011;12510;56.468;-3.004;2023-06-14T08:20:41;6.53;;;4.70;;
24389;SDS011;12510;56.468;-3.004;2023-06-14T08:23:07;7.15;;;4.40;;
24389;SDS011;12510;56.468;-3.004;2023-06-14T08:25:34;6.50;;;4.28;;
24389;SDS011;12510;56.468;-3.004;2023-06-14T08:28:01;6.20;;;4.30;;
24389;SDS011;12510;56.468;-3.004;2023-06-14T08:30:27;14.32;;;12.65;;
24389;SDS011;12510;56.468;-3.004;2023-06-14T08:32:54;5.40;;;4.20;;
24389;SDS011;12510;56.468;-3.004;2023-06-14T08:35:22;4.53;;;4.13;;
24389;SDS011;12510;56.468;-3.004;2023-06-14T08:37:49;5.22;;;4.22;;
24389;SDS011;12510;56.468;-3.004;2023-06-14T08:40:19;4.70;;;4.28;;
24389;SDS011;12510;56.468;-3.004;2023-06-14T08:42:51;4.53;;;3.85;;
24389;SDS011;12510;56.468;-3.004;2023-06-14T08:45:20;4.95;;;3.97;;
24389;SDS011;12510;56.468;-3.004;2023-06-14T08:47:47;4.80;;;4.40;;
24389;SDS011;12510;56.468;-3.004;2023-06-14T08:50:21;4.32;;;4.03;;
24389;SDS011;12510;56.468;-3.004;2023-06-14T08:52:57;6.45;;;4.10;;
24389;SDS011;12510;56.468;-3.004;2023-06-14T08:55:29;4.88;;;3.90;;
24389;SDS011;12510;56.468;-3.004;2023-06-14T08:57:57;5.90;;;4.10;;
24389;SDS011;12510;56.468;-3.004;2023-06-14T09:00:24;4.38;;;3.88;;
24389;SDS011;12510;56.468;-3.004;2023-06-14T09:02:52;13.43;;;4.37;;
24389;SDS011;12510;56.468;-3.004;2023-06-14T09:05:24;4.72;;;4.22;;
24389;SDS011;12510;56.468;-3.004;2023-06-14T09:07:51;4.93;;;4.10;;
24389;SDS011;12510;56.468;-3.004;2023-06-14T09:10:18;4.57;;;3.40;;
24389;SDS011;12510;56.468;-3.004;2023-06-14T09:12:46;5.85;;;4.13;;
24389;SDS011;12510;56.468;-3.004;2023-06-14T09:15:13;5.05;;;4.03;;
24389;SDS011;12510;56.468;-3.004;2023-06-14T09:17:40;6.60;;;4.13;;
24389;SDS011;12510;56.468;-3.004;2023-06-14T09:20:07;7.03;;;4.28;;
24389;SDS011;12510;56.468;-3.004;2023-06-14T09:22:37;4.88;;;4.25;;
24389;SDS011;12510;56.468;-3.004;2023-06-14T09:25:04;10.73;;;4.78;;
24389;SDS011;12510;56.468;-3.004;2023-06-14T09:27:31;6.03;;;4.20;;
24389;SDS011;12510;56.468;-3.004;2023-06-14T09:29:58;5.93;;;4.13;;
24389;SDS011;12510;56.468;-3.004;2023-06-14T09:32:26;4.20;;;3.80;;
24389;SDS011;12510;56.468;-3.004;2023-06-14T09:34:53;5.18;;;3.80;;
24389;SDS011;12510;56.468;-3.004;2023-06-14T09:37:30;6.07;;;3.80;;
24389;SDS011;12510;56.468;-3.004;2023-06-14T09:39:57;4.80;;;4.03;;
24389;SDS011;12510;56.468;-3.004;2023-06-14T09:42:24;5.40;;;3.88;;
24389;SDS011;12510;56.468;-3.004;2023-06-14T09:44:52;4.82;;;4.32;;
24389;SDS011;12510;56.468;-3.004;2023-06-14T09:47:20;4.22;;;3.80;;
24389;SDS011;12510;56.468;-3.004;2023-06-14T09:49:47;7.78;;;4.07;;
24389;SDS011;12510;56.468;-3.004;2023-06-14T09:52:15;4.57;;;3.42;;
24389;SDS011;12510;56.468;-3.004;2023-06-14T09:54:46;4.90;;;4.10;;
24389;SDS011;12510;56.468;-3.004;2023-06-14T09:59:42;4.00;;;3.63;;
24389;SDS011;12510;56.468;-3.004;2023-06-14T10:04:56;3.60;;;2.92;;
24389;SDS011;12510;56.468;-3.004;2023-06-14T10:07:30;3.28;;;2.67;;
24389;SDS011;12510;56.468;-3.004;2023-06-14T10:10:02;5.18;;;2.53;;
24389;SDS011;12510;56.468;-3.004;2023-06-14T10:12:29;5.75;;;3.20;;
24389;SDS011;12510;56.468;-3.004;2023-06-14T10:14:56;11.45;;;3.67;;
24389;SDS011;12510;56.468;-3.004;2023-06-14T10:17:33;7.85;;;3.42;;
24389;SDS011;12510;56.468;-3.004;2023-06-14T10:20:21;4.82;;;2.70;;
24389;SDS011;12510;56.468;-3.004;2023-06-14T10:22:54;3.28;;;2.88;;
24389;SDS011;12510;56.468;-3.004;2023-06-14T10:25:39;6.80;;;3.00;;
24389;SDS011;12510;56.468;-3.004;2023-06-14T10:33:32;4.07;;;3.25;;
24389;SDS011;12510;56.468;-3.004;2023-06-14T10:41:37;6.65;;;2.88;;
24389;SDS011;12510;56.468;-3.004;2023-06-14T10:46:40;7.32;;;3.33;;
24389;SDS011;12510;56.468;-3.004;2023-06-14T10:49:11;4.65;;;3.30;;
24389;SDS011;12510;56.468;-3.004;2023-06-14T10:51:38;6.05;;;3.13;;
24389;SDS011;12510;56.468;-3.004;2023-06-14T10:54:12;3.45;;;3.05;;
24389;SDS011;12510;56.468;-3.004;2023-06-14T10:56:51;7.22;;;3.47;;
24389;SDS011;12510;56.468;-3.004;2023-06-14T10:59:20;7.10;;;3.35;;
24389;SDS011;12510;56.468;-3.004;2023-06-14T11:10:14;4.00;;;3.60;;
24389;SDS011;12510;56.468;-3.004;2023-06-14T11:12:58;4.82;;;3.58;;
24389;SDS011;12510;56.468;-3.004;2023-06-14T11:15:31;6.65;;;2.95;;
24389;SDS011;12510;56.468;-3.004;2023-06-14T11:18:00;3.40;;;2.97;;
24389;SDS011;12510;56.468;-3.004;2023-06-14T11:20:30;8.02;;;3.38;;
24389;SDS011;12510;56.468;-3.004;2023-06-14T11:22:57;4.95;;;3.47;;
24389;SDS011;12510;56.468;-3.004;2023-06-14T11:25:24;4.00;;;2.83;;
24389;SDS011;12510;56.468;-3.004;2023-06-14T11:27:54;4.03;;;2.78;;
24389;SDS011;12510;56.468;-3.004;2023-06-14T11:30:22;4.70;;;2.88;;
24389;SDS011;12510;56.468;-3.004;2023-06-14T11:32:49;4.80;;;3.35;;
24389;SDS011;12510;56.468;-3.004;2023-06-14T11:35:18;3.67;;;2.43;;
24389;SDS011;12510;56.468;-3.004;2023-06-14T11:37:45;6.00;;;2.45;;
24389;SDS011;12510;56.468;-3.004;2023-06-14T11:40:11;3.28;;;2.70;;
24389;SDS011;12510;56.468;-3.004;2023-06-14T11:42:40;4.28;;;2.28;;
24389;SDS011;12510;56.468;-3.004;2023-06-14T11:45:07;7.40;;;2.83;;
24389;SDS011;12510;56.468;-3.004;2023-06-14T11:47:35;5.80;;;2.53;;
24389;SDS011;12510;56.468;-3.004;2023-06-14T11:50:03;3.47;;;2.65;;
24389;SDS011;12510;56.468;-3.004;2023-06-14T11:52:31;4.95;;;2.35;;
24389;SDS011;12510;56.468;-3.004;2023-06-14T11:54:58;3.88;;;2.65;;
24389;SDS011;12510;56.468;-3.004;2023-06-14T11:57:25;7.95;;;2.40;;
24389;SDS011;12510;56.468;-3.004;2023-06-14T11:59:52;3.72;;;2.80;;
24389;SDS011;12510;56.468;-3.004;2023-06-14T12:02:21;3.75;;;2.30;;
24389;SDS011;12510;56.468;-3.004;2023-06-14T12:04:48;3.88;;;2.60;;
24389;SDS011;12510;56.468;-3.004;2023-06-14T12:07:15;4.93;;;2.40;;
24389;SDS011;12510;56.468;-3.004;2023-06-14T12:12:25;3.55;;;2.28;;
24389;SDS011;12510;56.468;-3.004;2023-06-14T12:14:52;4.65;;;2.22;;
24389;SDS011;12510;56.468;-3.004;2023-06-14T12:17:19;4.35;;;2.53;;
24389;SDS011;12510;56.468;-3.004;2023-06-14T12:19:46;3.85;;;2.33;;
24389;SDS011;12510;56.468;-3.004;2023-06-14T12:22:13;2.55;;;2.30;;
24389;SDS011;12510;56.468;-3.004;2023-06-14T12:24:43;3.45;;;2.28;;
24389;SDS011;12510;56.468;-3.004;2023-06-14T12:27:11;2.97;;;2.28;;
24389;SDS011;12510;56.468;-3.004;2023-06-14T12:29:41;5.90;;;2.70;;
24389;SDS011;12510;56.468;-3.004;2023-06-14T12:32:11;5.57;;;3.15;;
24389;SDS011;12510;56.468;-3.004;2023-06-14T12:34:38;4.15;;;2.20;;
24389;SDS011;12510;56.468;-3.004;2023-06-14T12:37:04;4.65;;;2.30;;
24389;SDS011;12510;56.468;-3.004;2023-06-14T12:39:32;3.95;;;2.30;;
24389;SDS011;12510;56.468;-3.004;2023-06-14T12:41:59;5.68;;;2.33;;
24389;SDS011;12510;56.468;-3.004;2023-06-14T12:44:25;2.55;;;2.20;;
24389;SDS011;12510;56.468;-3.004;2023-06-14T12:46:51;2.40;;;2.20;;
24389;SDS011;12510;56.468;-3.004;2023-06-14T12:49:20;6.10;;;2.20;;
24389;SDS011;12510;56.468;-3.004;2023-06-14T12:51:46;3.55;;;2.88;;
24389;SDS011;12510;56.468;-3.004;2023-06-14T12:54:13;3.40;;;2.35;;
24389;SDS011;12510;56.468;-3.004;2023-06-14T12:56:40;3.30;;;2.00;;
24389;SDS011;12510;56.468;-3.004;2023-06-14T12:59:08;5.88;;;2.15;;
24389;SDS011;12510;56.468;-3.004;2023-06-14T13:01:35;5.53;;;1.92;;
24389;SDS011;12510;56.468;-3.004;2023-06-14T13:04:03;4.50;;;2.03;;
24389;SDS011;12510;56.468;-3.004;2023-06-14T13:06:30;2.80;;;1.85;;
24389;SDS011;12510;56.468;-3.004;2023-06-14T13:08:57;3.15;;;2.00;;
24389;SDS011;12510;56.468;-3.004;2023-06-14T13:11:24;1.73;;;1.63;;
24389;SDS011;12510;56.468;-3.004;2023-06-14T13:13:51;1.92;;;1.83;;
24389;SDS011;12510;56.468;-3.004;2023-06-14T13:16:17;2.20;;;1.88;;
24389;SDS011;12510;56.468;-3.004;2023-06-14T13:18:44;2.15;;;1.67;;
24389;SDS011;12510;56.468;-3.004;2023-06-14T13:21:10;5.20;;;1.95;;
24389;SDS011;12510;56.468;-3.004;2023-06-14T13:23:37;2.83;;;1.27;;
24389;SDS011;12510;56.468;-3.004;2023-06-14T13:26:03;3.60;;;1.35;;
24389;SDS011;12510;56.468;-3.004;2023-06-14T13:28:30;3.20;;;1.50;;
24389;SDS011;12510;56.468;-3.004;2023-06-14T13:30:57;3.47;;;1.85;;
24389;SDS011;12510;56.468;-3.004;2023-06-14T13:33:24;4.50;;;1.55;;
24389;SDS011;12510;56.468;-3.004;2023-06-14T13:35:50;3.88;;;1.70;;
24389;SDS011;12510;56.468;-3.004;2023-06-14T13:38:18;1.70;;;1.55;;
24389;SDS011;12510;56.468;-3.004;2023-06-14T13:40:45;3.25;;;1.30;;
24389;SDS011;12510;56.468;-3.004;2023-06-14T13:43:11;2.53;;;1.50;;
24389;SDS011;12510;56.468;-3.004;2023-06-14T13:45:38;3.30;;;1.40;;
24389;SDS011;12510;56.468;-3.004;2023-06-14T13:48:04;2.13;;;1.63;;
24389;SDS011;12510;56.468;-3.004;2023-06-14T13:50:31;5.53;;;1.63;;
24389;SDS011;12510;56.468;-3.004;2023-06-14T13:52:58;1.92;;;1.40;;
24389;SDS011;12510;56.468;-3.004;2023-06-14T13:55:24;2.70;;;1.77;;
24389;SDS011;12510;56.468;-3.004;2023-06-14T13:57:50;2.15;;;1.27;;
24389;SDS011;12510;56.468;-3.004;2023-06-14T14:00:17;2.47;;;1.50;;
24389;SDS011;12510;56.468;-3.004;2023-06-14T14:02:45;3.15;;;1.60;;
24389;SDS011;12510;56.468;-3.004;2023-06-14T14:05:11;3.05;;;1.65;;
24389;SDS011;12510;56.468;-3.004;2023-06-14T14:07:38;3.45;;;1.50;;
24389;SDS011;12510;56.468;-3.004;2023-06-14T14:10:05;6.10;;;1.58;;
24389;SDS011;12510;56.468;-3.004;2023-06-14T14:12:32;1.92;;;1.33;;
24389;SDS011;12510;56.468;-3.004;2023-06-14T14:14:59;2.92;;;1.60;;
24389;SDS011;12510;56.468;-3.004;2023-06-14T14:17:25;3.72;;;1.70;;
24389;SDS011;12510;56.468;-3.004;2023-06-14T14:19:52;1.40;;;1.27;;
24389;SDS011;12510;56.468;-3.004;2023-06-14T14:22:18;2.78;;;1.33;;
24389;SDS011;12510;56.468;-3.004;2023-06-14T14:24:45;6.00;;;1.95;;
24389;SDS011;12510;56.468;-3.004;2023-06-14T14:27:13;3.78;;;1.83;;
24389;SDS011;12510;56.468;-3.004;2023-06-14T14:29:39;4.40;;;1.90;;
24389;SDS011;12510;56.468;-3.004;2023-06-14T14:32:05;4.25;;;1.58;;
24389;SDS011;12510;56.468;-3.004;2023-06-14T14:34:32;4.93;;;1.55;;
24389;SDS011;12510;56.468;-3.004;2023-06-14T14:36:59;4.22;;;1.90;;
24389;SDS011;12510;56.468;-3.004;2023-06-14T14:39:25;2.28;;;1.30;;
24389;SDS011;12510;56.468;-3.004;2023-06-14T14:42:01;4.25;;;1.50;;
24389;SDS011;12510;56.468;-3.004;2023-06-14T14:44:27;2.72;;;1.90;;
24389;SDS011;12510;56.468;-3.004;2023-06-14T14:46:54;3.20;;;1.55;;
24389;SDS011;12510;56.468;-3.004;2023-06-14T14:49:20;3.15;;;1.27;;
24389;SDS011;12510;56.468;-3.004;2023-06-14T14:51:46;2.58;;;1.50;;
24389;SDS011;12510;56.468;-3.004;2023-06-14T14:54:13;5.63;;;1.23;;
24389;SDS011;12510;56.468;-3.004;2023-06-14T14:56:39;3.25;;;1.40;;
24389;SDS011;12510;56.468;-3.004;2023-06-14T14:59:06;2.30;;;1.40;;
24389;SDS011;12510;56.468;-3.004;2023-06-14T15:01:32;2.53;;;1.60;;
24389;SDS011;12510;56.468;-3.004;2023-06-14T15:03:59;2.90;;;1.20;;
24389;SDS011;12510;56.468;-3.004;2023-06-14T15:06:25;1.65;;;1.48;;
24389;SDS011;12510;56.468;-3.004;2023-06-14T15:08:52;4.07;;;1.60;;
24389;SDS011;12510;56.468;-3.004;2023-06-14T15:11:18;9.95;;;2.05;;
24389;SDS011;12510;56.468;-3.004;2023-06-14T15:13:45;3.60;;;1.50;;
24389;SDS011;12510;56.468;-3.004;2023-06-14T15:16:13;1.52;;;1.40;;
24389;SDS011;12510;56.468;-3.004;2023-06-14T15:18:39;2.85;;;1.27;;